Time;durP1;ratioP1;P1;durP2;ratioP2;P2;SDS_P1;SDS_P2;PMS_P1;PMS_P2;Temp;Humidity;BMP_temperature;BMP_pressure;BME280_temperature;BME280_humidity;BME280_pressure;Samples;Min_cycle;Max_cycle;Signal;HPM_P1;HPM_P2
2022/04/03 00:02:02;;;;;;;13.55;4.15;;;;;;;;;;5028727;28;20447;-75
2022/04/03 00:04:28;;;;;;;8.07;3.05;;;;;;;;;;5028036;28;20029;-74
2022/04/03 00:06:54;;;;;;;7.95;4.05;;;;;;;;;;5010670;28;20136;-74
2022/04/03 00:09:20;;;;;;;8.77;3.70;;;;;;;;;;5028346;28;20033;-76
2022/04/03 00:11:46;;;;;;;6.35;3.42;;;;;;;;;;5028873;28;20041;-75
2022/04/03 00:14:12;;;;;;;10.75;4.15;;;;;;;;;;5022816;28;20037;-75
2022/04/03 00:16:39;;;;;;;10.45;4.53;;;;;;;;;;5029144;28;20029;-75
2022/04/03 00:19:05;;;;;;;10.95;4.47;;;;;;;;;;5026601;28;20029;-75
2022/04/03 00:21:31;;;;;;;7.65;4.40;;;;;;;;;;5027323;28;20024;-76
2022/04/03 00:23:57;;;;;;;7.30;3.78;;;;;;;;;;5025335;28;20059;-74
2022/04/03 00:26:23;;;;;;;8.90;3.80;;;;;;;;;;5028675;28;20037;-75
2022/04/03 00:28:49;;;;;;;10.30;3.70;;;;;;;;;;5029321;28;20395;-74
2022/04/03 00:31:15;;;;;;;10.32;3.65;;;;;;;;;;5029004;28;20044;-75
2022/04/03 00:33:41;;;;;;;6.13;3.60;;;;;;;;;;5026447;28;20042;-74
2022/04/03 00:36:07;;;;;;;13.73;3.47;;;;;;;;;;5028691;28;20037;-74
2022/04/03 00:38:33;;;;;;;6.93;3.92;;;;;;;;;;5011643;28;20099;-75
2022/04/03 00:41:01;;;;;;;8.82;3.80;;;;;;;;;;5028471;28;20029;-75
2022/04/03 00:43:27;;;;;;;5.75;3.55;;;;;;;;;;5027790;28;20068;-74
2022/04/03 00:45:53;;;;;;;8.88;3.70;;;;;;;;;;5026433;28;20033;-75
2022/04/03 00:48:19;;;;;;;8.98;4.57;;;;;;;;;;5028451;28;20053;-74
2022/04/03 00:50:46;;;;;;;8.30;3.85;;;;;;;;;;5026266;28;20116;-74
2022/04/03 00:53:13;;;;;;;7.75;3.83;;;;;;;;;;5027538;28;20029;-74
2022/04/03 00:55:42;;;;;;;6.28;3.63;;;;;;;;;;5023728;28;20045;-74
2022/04/03 00:58:10;;;;;;;8.13;4.32;;;;;;;;;;5027589;28;20164;-74
2022/04/03 01:00:37;;;;;;;12.55;4.22;;;;;;;;;;5023714;28;20071;-74
2022/04/03 01:03:03;;;;;;;9.63;3.83;;;;;;;;;;5025339;28;20032;-74
2022/04/03 01:05:29;;;;;;;7.82;4.03;;;;;;;;;;5026664;28;20044;-76
2022/04/03 01:07:55;;;;;;;11.35;4.32;;;;;;;;;;5025581;28;20030;-74
2022/04/03 01:10:21;;;;;;;9.27;4.15;;;;;;;;;;5025908;28;20032;-75
2022/04/03 01:12:48;;;;;;;8.73;4.18;;;;;;;;;;5026532;28;20101;-75
2022/04/03 01:15:17;;;;;;;7.07;4.07;;;;;;;;;;5026275;28;20029;-75
2022/04/03 01:17:44;;;;;;;9.02;4.50;;;;;;;;;;5024414;28;20112;-74
2022/04/03 01:20:10;;;;;;;8.57;4.45;;;;;;;;;;5024150;28;21327;-75
2022/04/03 01:22:37;;;;;;;9.60;4.45;;;;;;;;;;5027263;28;20029;-75
2022/04/03 01:25:04;;;;;;;8.57;4.90;;;;;;;;;;5024145;28;20026;-75
2022/04/03 01:27:30;;;;;;;8.30;5.03;;;;;;;;;;5029291;28;20563;-73
2022/04/03 01:29:57;;;;;;;9.73;5.32;;;;;;;;;;5030560;28;20037;-75
2022/04/03 01:32:24;;;;;;;10.50;5.13;;;;;;;;;;5013580;28;20403;-76
2022/04/03 01:34:50;;;;;;;11.20;5.28;;;;;;;;;;5029356;28;20116;-75
2022/04/03 01:37:16;;;;;;;11.15;5.65;;;;;;;;;;5028591;28;20133;-75
2022/04/03 01:39:42;;;;;;;10.15;6.13;;;;;;;;;;5026452;28;20452;-73
2022/04/03 01:42:09;;;;;;;11.65;6.45;;;;;;;;;;5027477;28;20048;-74
2022/04/03 01:44:35;;;;;;;13.45;6.35;;;;;;;;;;5030807;28;20030;-75
2022/04/03 01:47:01;;;;;;;11.80;5.97;;;;;;;;;;5030545;28;20073;-74
2022/04/03 01:49:27;;;;;;;13.10;5.90;;;;;;;;;;5028733;28;20163;-73
2022/04/03 01:51:53;;;;;;;12.25;6.40;;;;;;;;;;5028278;28;20297;-75
2022/04/03 01:54:19;;;;;;;12.30;5.97;;;;;;;;;;5029708;28;20072;-75
2022/04/03 01:56:45;;;;;;;9.38;6.28;;;;;;;;;;5030011;28;20111;-74
2022/04/03 01:59:11;;;;;;;10.98;6.50;;;;;;;;;;5030975;28;20034;-75
2022/04/03 02:01:37;;;;;;;13.57;6.40;;;;;;;;;;5028368;28;20391;-75
2022/04/03 02:04:04;;;;;;;12.73;5.85;;;;;;;;;;5029957;28;20151;-75
2022/04/03 02:06:30;;;;;;;13.18;5.85;;;;;;;;;;5028866;28;20041;-75
2022/04/03 02:08:57;;;;;;;11.32;5.30;;;;;;;;;;5029068;28;20022;-75
2022/04/03 02:11:23;;;;;;;10.77;5.80;;;;;;;;;;5029072;28;20028;-74
2022/04/03 02:13:50;;;;;;;9.27;5.95;;;;;;;;;;5028864;28;20034;-75
2022/04/03 02:16:16;;;;;;;12.38;6.97;;;;;;;;;;5030080;28;20147;-75
2022/04/03 02:18:42;;;;;;;14.23;7.30;;;;;;;;;;5030109;28;20585;-74
2022/04/03 02:21:09;;;;;;;11.95;7.00;;;;;;;;;;5023904;28;20037;-73
2022/04/03 02:23:35;;;;;;;10.10;6.55;;;;;;;;;;5025332;28;20469;-74
2022/04/03 02:26:01;;;;;;;17.48;7.90;;;;;;;;;;5028667;28;20041;-74
2022/04/03 02:28:27;;;;;;;15.35;7.88;;;;;;;;;;5029117;28;20039;-75
2022/04/03 02:30:53;;;;;;;15.48;7.18;;;;;;;;;;5027779;28;20044;-75
2022/04/03 02:33:19;;;;;;;15.07;8.82;;;;;;;;;;5023335;28;20505;-75
2022/04/03 02:35:45;;;;;;;23.05;15.23;;;;;;;;;;5030581;28;20026;-74
2022/04/03 02:38:11;;;;;;;17.80;11.65;;;;;;;;;;5031051;28;20025;-74
2022/04/03 02:40:37;;;;;;;14.90;10.45;;;;;;;;;;5028273;28;20199;-76
2022/04/03 02:43:04;;;;;;;16.00;8.90;;;;;;;;;;5010459;28;20041;-73
2022/04/03 02:45:30;;;;;;;15.48;8.43;;;;;;;;;;5029685;28;20487;-75
2022/04/03 02:47:56;;;;;;;13.00;7.10;;;;;;;;;;5030705;28;20041;-75
2022/04/03 02:50:23;;;;;;;11.18;7.07;;;;;;;;;;5029413;28;20068;-75
2022/04/03 02:52:50;;;;;;;12.05;7.20;;;;;;;;;;5027707;28;20051;-74
2022/04/03 02:55:16;;;;;;;10.25;6.30;;;;;;;;;;5029276;28;20061;-75
2022/04/03 02:57:43;;;;;;;10.27;6.38;;;;;;;;;;5030482;28;20068;-76
2022/04/03 03:00:14;;;;;;;10.10;6.03;;;;;;;;;;5029650;28;20033;-76
2022/04/03 03:02:41;;;;;;;11.93;6.78;;;;;;;;;;5029842;28;20025;-75
2022/04/03 03:05:07;;;;;;;19.23;7.55;;;;;;;;;;5029682;28;20021;-74
2022/04/03 03:07:37;;;;;;;13.23;8.02;;;;;;;;;;5030222;28;20037;-75
2022/04/03 03:10:07;;;;;;;11.85;7.25;;;;;;;;;;5028319;28;20025;-74
2022/04/03 03:12:34;;;;;;;16.63;8.38;;;;;;;;;;5029707;28;20139;-74
2022/04/03 03:15:00;;;;;;;17.75;8.15;;;;;;;;;;5025484;28;20111;-74
2022/04/03 03:17:27;;;;;;;14.98;6.90;;;;;;;;;;5029553;28;20032;-74
2022/04/03 03:19:53;;;;;;;13.80;7.47;;;;;;;;;;5029604;28;20147;-75
2022/04/03 03:22:19;;;;;;;12.25;7.95;;;;;;;;;;5029902;28;20036;-74
2022/04/03 03:24:46;;;;;;;13.20;7.80;;;;;;;;;;5028714;28;20115;-74
2022/04/03 03:27:12;;;;;;;15.20;7.70;;;;;;;;;;5027501;28;20482;-75
2022/04/03 03:29:38;;;;;;;14.10;7.20;;;;;;;;;;5029200;28;20048;-75
2022/04/03 03:32:05;;;;;;;12.73;7.13;;;;;;;;;;5026795;28;20029;-76
2022/04/03 03:34:31;;;;;;;13.27;7.60;;;;;;;;;;5025849;28;20037;-75
2022/04/03 03:36:57;;;;;;;16.70;7.38;;;;;;;;;;5027772;28;20025;-76
2022/04/03 03:39:24;;;;;;;19.90;8.25;;;;;;;;;;5026148;28;20071;-76
2022/04/03 03:41:50;;;;;;;16.13;8.82;;;;;;;;;;5025742;28;20029;-75
2022/04/03 03:44:17;;;;;;;13.75;8.18;;;;;;;;;;5027826;28;20021;-74
2022/04/03 03:46:43;;;;;;;15.70;8.38;;;;;;;;;;5027603;28;20036;-74
2022/04/03 03:49:09;;;;;;;13.63;9.13;;;;;;;;;;5027339;28;20053;-74
2022/04/03 03:51:36;;;;;;;18.50;10.02;;;;;;;;;;5026549;28;20028;-73
2022/04/03 03:54:03;;;;;;;19.65;11.45;;;;;;;;;;5027197;28;20036;-75
2022/04/03 03:56:29;;;;;;;18.20;10.15;;;;;;;;;;5027035;28;20109;-75
2022/04/03 03:58:55;;;;;;;17.00;10.73;;;;;;;;;;5010594;28;20264;-75
2022/04/03 04:01:22;;;;;;;18.35;10.45;;;;;;;;;;5025728;28;20832;-74
2022/04/03 04:03:48;;;;;;;19.73;10.95;;;;;;;;;;5024067;28;20029;-73
2022/04/03 04:06:14;;;;;;;15.52;10.68;;;;;;;;;;5027162;28;20128;-74
2022/04/03 04:08:41;;;;;;;19.98;12.50;;;;;;;;;;5028748;28;20121;-73
2022/04/03 04:11:07;;;;;;;22.88;13.27;;;;;;;;;;5027126;28;20491;-74
2022/04/03 04:13:33;;;;;;;26.55;14.98;;;;;;;;;;5026966;28;20122;-74
2022/04/03 04:15:59;;;;;;;21.80;14.05;;;;;;;;;;5027115;28;20029;-74
2022/04/03 04:18:25;;;;;;;21.52;14.15;;;;;;;;;;5023080;28;20088;-74
2022/04/03 04:20:52;;;;;;;25.85;15.07;;;;;;;;;;5028132;28;20064;-75
2022/04/03 04:23:19;;;;;;;27.38;16.00;;;;;;;;;;5028187;28;20537;-76
2022/04/03 04:25:45;;;;;;;32.70;17.42;;;;;;;;;;5027703;28;20037;-76
2022/04/03 04:28:11;;;;;;;37.13;19.33;;;;;;;;;;5027659;28;20034;-75
2022/04/03 04:30:37;;;;;;;29.65;17.83;;;;;;;;;;5027674;28;20061;-75
2022/04/03 04:33:04;;;;;;;34.63;20.42;;;;;;;;;;5027449;28;20152;-75
2022/04/03 04:35:30;;;;;;;32.92;20.60;;;;;;;;;;5026614;28;20487;-76
2022/04/03 04:37:56;;;;;;;33.00;21.25;;;;;;;;;;5011706;28;20049;-76
2022/04/03 04:40:22;;;;;;;36.78;21.10;;;;;;;;;;5028617;28;20105;-74
2022/04/03 04:42:49;;;;;;;36.28;20.98;;;;;;;;;;5026446;28;20041;-76
2022/04/03 04:45:15;;;;;;;39.88;21.83;;;;;;;;;;5023442;28;20120;-75
2022/04/03 04:47:42;;;;;;;37.75;22.60;;;;;;;;;;5027446;28;20041;-76
2022/04/03 04:50:08;;;;;;;43.15;24.40;;;;;;;;;;5009575;28;20034;-75
2022/04/03 04:52:35;;;;;;;45.72;27.10;;;;;;;;;;5026886;28;20194;-75
2022/04/03 04:55:02;;;;;;;41.95;25.73;;;;;;;;;;5025681;28;20370;-74
2022/04/03 04:57:28;;;;;;;50.10;29.27;;;;;;;;;;5024377;28;20030;-76
2022/04/03 04:59:54;;;;;;;55.70;28.58;;;;;;;;;;5026149;28;20036;-75
2022/04/03 05:02:20;;;;;;;46.47;27.73;;;;;;;;;;5026676;28;20088;-75
2022/04/03 05:04:46;;;;;;;49.15;29.98;;;;;;;;;;5027849;28;20040;-76
2022/04/03 05:07:12;;;;;;;53.10;31.92;;;;;;;;;;5010203;28;20044;-74
2022/04/03 05:09:38;;;;;;;52.47;30.67;;;;;;;;;;5010346;28;20442;-74
2022/04/03 05:12:05;;;;;;;46.40;29.17;;;;;;;;;;5022594;28;20042;-75
2022/04/03 05:14:31;;;;;;;49.38;28.50;;;;;;;;;;5022343;28;20117;-75
2022/04/03 05:16:57;;;;;;;49.13;29.35;;;;;;;;;;5024501;28;20013;-75
2022/04/03 05:19:24;;;;;;;49.05;28.75;;;;;;;;;;5025659;28;20428;-74
2022/04/03 05:21:51;;;;;;;55.80;29.00;;;;;;;;;;5025660;28;20060;-75
2022/04/03 05:24:17;;;;;;;50.75;30.27;;;;;;;;;;5022045;28;20037;-75
2022/04/03 05:26:43;;;;;;;53.50;31.13;;;;;;;;;;5025046;28;20069;-74
2022/04/03 05:29:10;;;;;;;79.80;33.78;;;;;;;;;;5026241;28;20083;-74
2022/04/03 05:31:36;;;;;;;55.13;31.08;;;;;;;;;;5025847;28;20152;-73
2022/04/03 05:34:02;;;;;;;53.33;31.75;;;;;;;;;;5023924;28;20032;-75
2022/04/03 05:36:28;;;;;;;57.63;33.80;;;;;;;;;;5025357;28;20026;-76
2022/04/03 05:38:54;;;;;;;59.67;35.00;;;;;;;;;;5027953;28;20487;-75
2022/04/03 05:41:20;;;;;;;59.15;34.47;;;;;;;;;;5022357;28;20033;-76
2022/04/03 05:43:46;;;;;;;53.08;32.50;;;;;;;;;;5021543;28;20037;-75
2022/04/03 05:46:12;;;;;;;51.33;30.52;;;;;;;;;;5027194;28;20034;-75
2022/04/03 05:48:38;;;;;;;42.92;26.45;;;;;;;;;;5025665;28;20048;-76
2022/04/03 05:51:04;;;;;;;36.20;24.63;;;;;;;;;;5025550;28;20029;-75
2022/04/03 05:53:31;;;;;;;34.85;23.65;;;;;;;;;;5024822;28;20033;-76
2022/04/03 05:55:57;;;;;;;36.30;23.88;;;;;;;;;;5008580;28;20045;-75
2022/04/03 05:58:24;;;;;;;34.00;23.05;;;;;;;;;;5026247;28;20568;-76
2022/04/03 06:00:50;;;;;;;35.28;23.70;;;;;;;;;;5024026;28;20033;-76
2022/04/03 06:03:16;;;;;;;32.47;21.30;;;;;;;;;;5023448;28;20037;-75
2022/04/03 06:05:42;;;;;;;30.80;21.85;;;;;;;;;;5025863;28;20094;-76
2022/04/03 06:08:08;;;;;;;29.20;19.63;;;;;;;;;;5026578;28;20053;-75
2022/04/03 06:10:34;;;;;;;31.40;20.70;;;;;;;;;;5025804;28;20033;-76
2022/04/03 06:13:02;;;;;;;33.70;20.95;;;;;;;;;;5008276;28;20044;-75
2022/04/03 06:15:31;;;;;;;27.00;19.38;;;;;;;;;;5028963;28;20017;-77
2022/04/03 06:17:57;;;;;;;29.85;19.92;;;;;;;;;;5031907;28;20049;-74
2022/04/03 06:20:23;;;;;;;26.23;18.92;;;;;;;;;;5029241;28;20037;-75
2022/04/03 06:22:50;;;;;;;27.75;19.33;;;;;;;;;;5027943;28;20116;-75
2022/04/03 06:25:16;;;;;;;30.23;18.38;;;;;;;;;;5031439;28;20454;-75
2022/04/03 06:27:42;;;;;;;27.63;16.77;;;;;;;;;;5029969;28;20037;-74
2022/04/03 06:30:09;;;;;;;23.40;15.77;;;;;;;;;;5027318;28;20056;-76
2022/04/03 06:32:35;;;;;;;20.85;14.43;;;;;;;;;;5031303;28;20095;-76
2022/04/03 06:35:01;;;;;;;18.05;12.57;;;;;;;;;;5035325;28;20021;-75
2022/04/03 06:37:27;;;;;;;18.02;11.45;;;;;;;;;;5033907;28;20029;-77
2022/04/03 06:39:53;;;;;;;14.35;9.40;;;;;;;;;;5032627;28;20046;-75
2022/04/03 06:42:19;;;;;;;13.10;9.75;;;;;;;;;;5031761;28;20037;-77
2022/04/03 06:44:45;;;;;;;17.77;10.07;;;;;;;;;;5031090;28;20037;-77
2022/04/03 06:47:11;;;;;;;15.18;9.85;;;;;;;;;;5015544;28;20057;-76
2022/04/03 06:49:40;;;;;;;13.98;10.05;;;;;;;;;;5031166;28;20747;-77
2022/04/03 06:52:07;;;;;;;21.50;11.60;;;;;;;;;;5028294;28;20030;-77
2022/04/03 06:54:34;;;;;;;19.58;11.98;;;;;;;;;;5032693;28;20052;-77
2022/04/03 06:57:00;;;;;;;19.90;12.77;;;;;;;;;;5032963;28;20082;-77
2022/04/03 06:59:27;;;;;;;21.55;12.77;;;;;;;;;;5030123;28;20022;-76
2022/04/03 07:01:53;;;;;;;15.45;10.60;;;;;;;;;;5031404;28;20052;-77
2022/04/03 07:04:19;;;;;;;14.55;9.68;;;;;;;;;;5032064;28;20053;-77
2022/04/03 07:06:45;;;;;;;16.17;9.50;;;;;;;;;;5013111;28;20067;-77
2022/04/03 07:09:11;;;;;;;13.65;9.00;;;;;;;;;;5029948;28;20049;-77
2022/04/03 07:11:37;;;;;;;10.70;7.68;;;;;;;;;;5032362;28;20034;-77
2022/04/03 07:14:04;;;;;;;14.00;7.43;;;;;;;;;;5030420;28;20048;-77
2022/04/03 07:16:30;;;;;;;10.32;6.68;;;;;;;;;;5029606;28;20087;-76
2022/04/03 07:18:56;;;;;;;11.48;5.70;;;;;;;;;;5029108;28;20021;-77
2022/04/03 07:21:22;;;;;;;9.63;4.85;;;;;;;;;;5027318;28;20037;-76
2022/04/03 07:23:49;;;;;;;7.78;4.50;;;;;;;;;;5012460;28;20116;-76
2022/04/03 07:26:15;;;;;;;8.25;3.85;;;;;;;;;;5027208;28;20033;-76
2022/04/03 07:28:41;;;;;;;5.75;3.30;;;;;;;;;;5029071;28;20041;-75
2022/04/03 07:31:08;;;;;;;6.22;3.13;;;;;;;;;;5029062;28;20200;-76
2022/04/03 07:33:35;;;;;;;5.35;2.65;;;;;;;;;;5030674;28;20029;-76
2022/04/03 07:36:01;;;;;;;8.32;2.58;;;;;;;;;;5029163;28;20026;-76
2022/04/03 07:38:27;;;;;;;3.28;2.28;;;;;;;;;;5029406;28;20026;-76
2022/04/03 07:40:53;;;;;;;5.20;2.67;;;;;;;;;;5028123;28;20044;-77
2022/04/03 07:43:19;;;;;;;4.82;1.80;;;;;;;;;;5026147;28;20037;-75
2022/04/03 07:45:46;;;;;;;7.63;2.55;;;;;;;;;;5028485;28;20037;-75
2022/04/03 07:48:12;;;;;;;3.78;1.90;;;;;;;;;;5025801;28;20029;-74
2022/04/03 07:50:38;;;;;;;3.45;1.92;;;;;;;;;;5026616;28;20034;-75
2022/04/03 07:53:05;;;;;;;5.78;1.92;;;;;;;;;;5029088;28;20095;-74
2022/04/03 07:55:31;;;;;;;3.20;1.80;;;;;;;;;;5029127;28;20034;-74
2022/04/03 07:57:57;;;;;;;5.60;2.00;;;;;;;;;;5031642;28;20093;-75
2022/04/03 08:00:23;;;;;;;3.03;1.70;;;;;;;;;;5030149;28;20493;-76
2022/04/03 08:02:49;;;;;;;2.90;1.77;;;;;;;;;;5029616;28;20083;-76
2022/04/03 08:05:15;;;;;;;3.03;1.70;;;;;;;;;;5029923;28;20021;-76
2022/04/03 08:07:45;;;;;;;3.95;1.92;;;;;;;;;;5028606;28;20040;-74
2022/04/03 08:10:13;;;;;;;6.18;1.55;;;;;;;;;;5027215;28;20321;-75
2022/04/03 08:12:40;;;;;;;3.47;1.30;;;;;;;;;;5028443;28;20099;-75
2022/04/03 08:15:07;;;;;;;3.92;2.10;;;;;;;;;;5031133;28;20120;-76
2022/04/03 08:17:33;;;;;;;6.63;2.20;;;;;;;;;;5031083;28;20558;-77
2022/04/03 08:19:59;;;;;;;2.75;1.30;;;;;;;;;;5030889;28;20059;-75
2022/04/03 08:22:25;;;;;;;5.32;2.20;;;;;;;;;;5034136;28;20040;-76
2022/04/03 08:24:51;;;;;;;6.20;2.75;;;;;;;;;;5034552;28;20022;-76
2022/04/03 08:27:18;;;;;;;18.50;3.08;;;;;;;;;;5033052;28;20044;-76
2022/04/03 08:29:44;;;;;;;10.13;1.92;;;;;;;;;;5030317;28;20410;-75
2022/04/03 08:32:10;;;;;;;5.38;1.63;;;;;;;;;;5029925;28;20459;-76
2022/04/03 08:34:37;;;;;;;5.32;1.70;;;;;;;;;;5029776;28;20026;-76
2022/04/03 08:37:03;;;;;;;3.83;1.80;;;;;;;;;;5030079;28;20029;-76
2022/04/03 08:39:29;;;;;;;5.18;1.83;;;;;;;;;;5029424;28;20033;-75
2022/04/03 08:41:56;;;;;;;4.25;1.90;;;;;;;;;;5029640;28;20060;-78
2022/04/03 08:44:22;;;;;;;7.82;2.03;;;;;;;;;;5028365;28;20104;-75
2022/04/03 08:46:49;;;;;;;4.22;1.63;;;;;;;;;;5027620;28;20076;-76
2022/04/03 08:49:16;;;;;;;4.82;1.52;;;;;;;;;;5027597;28;20022;-78
2022/04/03 08:51:43;;;;;;;4.78;1.63;;;;;;;;;;5027459;28;20487;-78
2022/04/03 08:54:09;;;;;;;4.88;1.70;;;;;;;;;;5028627;28;20041;-76
2022/04/03 08:56:35;;;;;;;3.67;1.45;;;;;;;;;;5028602;28;20069;-75
2022/04/03 08:59:02;;;;;;;5.10;1.52;;;;;;;;;;5028811;28;20034;-77
2022/04/03 09:01:29;;;;;;;3.80;1.67;;;;;;;;;;5022564;28;20038;-77
2022/04/03 09:03:55;;;;;;;4.38;1.50;;;;;;;;;;5028665;28;20041;-77
2022/04/03 09:06:24;;;;;;;8.13;1.98;;;;;;;;;;5027009;28;20120;-74
2022/04/03 09:08:50;;;;;;;8.80;2.15;;;;;;;;;;5027899;28;20034;-77
2022/04/03 09:11:16;;;;;;;4.82;1.90;;;;;;;;;;5027585;28;20033;-75
2022/04/03 09:13:43;;;;;;;6.05;1.67;;;;;;;;;;5026714;28;20025;-77
2022/04/03 09:16:11;;;;;;;4.70;1.70;;;;;;;;;;5027695;28;20083;-75
2022/04/03 09:18:53;;;;;;;3.85;1.63;;;;;;;;;;5030558;28;20537;-77
2022/04/03 09:21:23;;;;;;;4.97;1.98;;;;;;;;;;5028160;28;20041;-77
2022/04/03 09:23:56;;;;;;;6.03;2.10;;;;;;;;;;5030180;28;20458;-75
2022/04/03 09:26:22;;;;;;;7.78;2.10;;;;;;;;;;5031335;28;20371;-79
2022/04/03 09:28:48;;;;;;;6.47;2.75;;;;;;;;;;5012262;28;20030;-79
2022/04/03 09:31:30;;;;;;;6.65;3.20;;;;;;;;;;5032243;28;20404;-77
2022/04/03 09:34:04;;;;;;;7.60;3.20;;;;;;;;;;5029490;28;20475;-76
2022/04/03 09:36:33;;;;;;;5.75;3.63;;;;;;;;;;5028636;28;20130;-76
2022/04/03 09:39:06;;;;;;;9.90;3.85;;;;;;;;;;5029717;28;20081;-76
2022/04/03 09:41:33;;;;;;;9.32;3.90;;;;;;;;;;5013513;28;20384;-76
2022/04/03 09:43:59;;;;;;;9.20;4.13;;;;;;;;;;5028141;28;20029;-73
2022/04/03 09:46:29;;;;;;;11.88;4.63;;;;;;;;;;5028118;28;20475;-77
2022/04/03 09:48:56;;;;;;;8.55;4.40;;;;;;;;;;5033785;28;20025;-77
2022/04/03 09:51:22;;;;;;;6.40;4.32;;;;;;;;;;5034636;28;20036;-76
2022/04/03 09:54:02;;;;;;;5.97;1.80;;;;;;;;;;5033798;28;20033;-75
2022/04/03 09:56:31;;;;;;;3.72;1.63;;;;;;;;;;5032225;28;20116;-76
2022/04/03 09:58:58;;;;;;;7.35;2.00;;;;;;;;;;5031460;28;20462;-75
2022/04/03 10:01:35;;;;;;;3.90;1.40;;;;;;;;;;5032100;28;20025;-74
2022/04/03 10:04:05;;;;;;;2.45;1.13;;;;;;;;;;5031217;28;20030;-77
2022/04/03 10:06:32;;;;;;;3.43;1.43;;;;;;;;;;5028344;28;20032;-75
2022/04/03 10:08:59;;;;;;;4.40;1.63;;;;;;;;;;5032662;28;20242;-77
2022/04/03 10:11:25;;;;;;;2.25;1.08;;;;;;;;;;5033867;28;20466;-75
2022/04/03 10:13:51;;;;;;;3.53;1.15;;;;;;;;;;5029529;28;20071;-76
2022/04/03 10:16:18;;;;;;;2.33;1.13;;;;;;;;;;5031615;28;20072;-76
2022/04/03 10:18:45;;;;;;;2.67;0.90;;;;;;;;;;5032382;28;20052;-75
2022/04/03 10:21:17;;;;;;;2.33;1.00;;;;;;;;;;5030736;28;20022;-76
2022/04/03 10:23:45;;;;;;;4.65;1.02;;;;;;;;;;5031475;28;20083;-76
2022/04/03 10:26:12;;;;;;;2.63;1.48;;;;;;;;;;5034392;28;20056;-76
2022/04/03 10:28:40;;;;;;;2.33;1.10;;;;;;;;;;5033628;28;20061;-77
2022/04/03 10:31:08;;;;;;;3.65;1.10;;;;;;;;;;5030811;28;20094;-75
2022/04/03 10:33:39;;;;;;;2.55;0.90;;;;;;;;;;5032043;28;20045;-76
2022/04/03 10:36:06;;;;;;;3.15;1.30;;;;;;;;;;5030709;28;20034;-77
2022/04/03 10:38:40;;;;;;;4.07;1.50;;;;;;;;;;5032366;28;20022;-76
2022/04/03 10:41:06;;;;;;;3.35;1.45;;;;;;;;;;5036424;28;20084;-77
2022/04/03 10:43:36;;;;;;;4.10;1.40;;;;;;;;;;5034540;28;20029;-78
2022/04/03 10:46:03;;;;;;;3.85;1.65;;;;;;;;;;5037536;28;20034;-75
2022/04/03 10:48:30;;;;;;;2.78;1.10;;;;;;;;;;5038522;28;20072;-78
2022/04/03 10:50:56;;;;;;;3.08;1.35;;;;;;;;;;5032821;28;20037;-77
2022/04/03 10:53:27;;;;;;;6.40;2.08;;;;;;;;;;5033058;28;20068;-76
2022/04/03 10:55:54;;;;;;;2.42;1.25;;;;;;;;;;5028014;28;20048;-76
2022/04/03 10:58:20;;;;;;;2.42;0.77;;;;;;;;;;5031407;28;20084;-77
2022/04/03 11:00:47;;;;;;;4.07;1.23;;;;;;;;;;5031893;28;20033;-78
2022/04/03 11:03:19;;;;;;;2.00;1.27;;;;;;;;;;5032506;28;20029;-77
2022/04/03 11:05:46;;;;;;;3.92;1.23;;;;;;;;;;5029336;28;20042;-76
2022/04/03 11:08:12;;;;;;;2.25;1.15;;;;;;;;;;5031324;28;20326;-77
2022/04/03 11:10:56;;;;;;;3.78;0.95;;;;;;;;;;5027834;28;20087;-78
2022/04/03 11:13:23;;;;;;;2.75;1.20;;;;;;;;;;5031248;28;20056;-78
2022/04/03 11:15:56;;;;;;;2.95;1.00;;;;;;;;;;5030181;28;20048;-77
2022/04/03 11:18:29;;;;;;;5.40;1.20;;;;;;;;;;5028544;28;20030;-77
2022/04/03 11:21:07;;;;;;;3.60;1.35;;;;;;;;;;5029422;28;20018;-77
2022/04/03 11:23:37;;;;;;;3.83;1.20;;;;;;;;;;5025632;28;20065;-75
2022/04/03 11:26:04;;;;;;;6.28;0.85;;;;;;;;;;5030524;28;20184;-79
2022/04/03 11:28:32;;;;;;;4.95;1.10;;;;;;;;;;5027451;28;20429;-78
2022/04/03 11:30:59;;;;;;;2.83;1.20;;;;;;;;;;5030321;28;20513;-78
2022/04/03 11:33:26;;;;;;;8.15;1.40;;;;;;;;;;5016100;28;20050;-77
2022/04/03 11:35:53;;;;;;;4.40;1.52;;;;;;;;;;5026239;28;20502;-77
2022/04/03 11:38:20;;;;;;;4.05;1.17;;;;;;;;;;5030301;28;20029;-78
2022/04/03 11:40:49;;;;;;;2.03;1.38;;;;;;;;;;5030337;28;20553;-77
2022/04/03 11:43:19;;;;;;;2.85;0.90;;;;;;;;;;5029198;28;20033;-77
2022/04/03 11:45:55;;;;;;;4.38;1.52;;;;;;;;;;5026911;28;20029;-78
2022/04/03 11:48:22;;;;;;;2.08;1.00;;;;;;;;;;5031961;28;20598;-76
2022/04/03 11:50:51;;;;;;;2.28;1.00;;;;;;;;;;5029481;28;20719;-77
2022/04/03 11:53:18;;;;;;;1.85;0.80;;;;;;;;;;5028788;28;20549;-77
2022/04/03 11:55:44;;;;;;;4.50;1.35;;;;;;;;;;5029728;28;20133;-77
2022/04/03 11:58:10;;;;;;;3.25;1.27;;;;;;;;;;5030837;28;20053;-76
2022/04/03 12:00:46;;;;;;;4.90;1.33;;;;;;;;;;5027210;28;20030;-77
2022/04/03 12:03:12;;;;;;;4.13;1.17;;;;;;;;;;5028743;28;20063;-78
2022/04/03 12:05:41;;;;;;;3.05;1.50;;;;;;;;;;5024632;28;20053;-76
2022/04/03 12:08:07;;;;;;;3.50;1.60;;;;;;;;;;5023126;28;20065;-78
2022/04/03 12:10:33;;;;;;;3.42;1.40;;;;;;;;;;5024835;28;20033;-77
2022/04/03 12:12:59;;;;;;;2.13;1.23;;;;;;;;;;5025391;28;20467;-77
2022/04/03 12:15:27;;;;;;;5.15;1.40;;;;;;;;;;5028106;28;20025;-75
2022/04/03 12:17:57;;;;;;;3.13;0.93;;;;;;;;;;5029509;28;20021;-77
2022/04/03 12:20:23;;;;;;;2.55;1.10;;;;;;;;;;5028908;28;20029;-78
2022/04/03 12:22:50;;;;;;;2.78;1.00;;;;;;;;;;5027628;28;20056;-78
2022/04/03 12:25:16;;;;;;;3.05;1.30;;;;;;;;;;5022959;28;20025;-78
2022/04/03 12:27:42;;;;;;;8.52;1.70;;;;;;;;;;5031041;28;20048;-78
2022/04/03 12:30:09;;;;;;;5.32;1.80;;;;;;;;;;5027861;28;20525;-78
2022/04/03 12:32:36;;;;;;;3.08;1.40;;;;;;;;;;5030262;28;20047;-78
2022/04/03 12:35:06;;;;;;;3.28;1.67;;;;;;;;;;5028472;28;20022;-79
2022/04/03 12:37:36;;;;;;;3.40;1.95;;;;;;;;;;5030639;28;20032;-79
2022/04/03 12:40:07;;;;;;;3.25;1.42;;;;;;;;;;5028048;28;20120;-77
2022/04/03 12:42:34;;;;;;;6.20;2.20;;;;;;;;;;5026192;28;20522;-78
2022/04/03 12:45:08;;;;;;;4.43;1.80;;;;;;;;;;5021209;28;20108;-78
2022/04/03 12:47:42;;;;;;;3.65;1.80;;;;;;;;;;5021580;28;20463;-79
2022/04/03 12:50:21;;;;;;;5.07;2.00;;;;;;;;;;5028894;28;20025;-79
2022/04/03 12:52:51;;;;;;;4.72;2.22;;;;;;;;;;5023137;28;20014;-79
2022/04/03 12:55:26;;;;;;;6.55;1.77;;;;;;;;;;5024028;28;20420;-78
2022/04/03 13:00:44;;;;;;;6.40;2.20;;;;;;;;;;5024963;28;20410;-77
2022/04/03 13:03:10;;;;;;;5.13;1.65;;;;;;;;;;5027913;28;20498;-78
2022/04/03 13:05:38;;;;;;;3.78;1.38;;;;;;;;;;5024908;28;20044;-78
2022/04/03 13:08:12;;;;;;;5.75;2.47;;;;;;;;;;5028988;28;20526;-76
2022/04/03 13:10:57;;;;;;;6.50;3.80;;;;;;;;;;5026209;28;20037;-76
2022/04/03 13:13:29;;;;;;;11.55;5.63;;;;;;;;;;5030807;28;20396;-77
2022/04/03 13:15:56;;;;;;;4.82;3.38;;;;;;;;;;5026188;28;20013;-73
2022/04/03 13:18:23;;;;;;;8.05;5.10;;;;;;;;;;5022861;28;20056;-76
2022/04/03 13:20:53;;;;;;;6.72;3.70;;;;;;;;;;5016554;28;20030;-75
2022/04/03 13:23:20;;;;;;;10.00;5.45;;;;;;;;;;5024211;28;20064;-76
2022/04/03 13:25:46;;;;;;;12.27;5.22;;;;;;;;;;5024461;28;20075;-76
2022/04/03 13:28:13;;;;;;;11.38;6.88;;;;;;;;;;5024182;28;20513;-77
2022/04/03 13:30:39;;;;;;;19.02;10.95;;;;;;;;;;5024893;28;20033;-76
2022/04/03 13:33:05;;;;;;;23.98;13.30;;;;;;;;;;5027538;28;20029;-76
2022/04/03 13:35:31;;;;;;;8.40;4.93;;;;;;;;;;5021982;28;20066;-76
2022/04/03 13:37:57;;;;;;;59.65;32.38;;;;;;;;;;5023462;28;20104;-77
2022/04/03 13:40:23;;;;;;;9.75;3.90;;;;;;;;;;5025367;28;20192;-77
2022/04/03 13:42:49;;;;;;;35.95;14.95;;;;;;;;;;5023154;28;20087;-77
2022/04/03 13:45:16;;;;;;;46.83;23.15;;;;;;;;;;5026139;28;20034;-76
2022/04/03 13:47:42;;;;;;;4.80;2.15;;;;;;;;;;5020675;28;20040;-76
2022/04/03 13:50:10;;;;;;;2.42;1.13;;;;;;;;;;5026296;28;20025;-75
2022/04/03 13:52:36;;;;;;;2.58;1.45;;;;;;;;;;5025205;28;20061;-77
2022/04/03 13:55:02;;;;;;;3.90;1.80;;;;;;;;;;5027037;28;20040;-76
2022/04/03 13:57:28;;;;;;;3.72;1.30;;;;;;;;;;5024727;28;20037;-76
2022/04/03 13:59:56;;;;;;;2.80;1.02;;;;;;;;;;5026323;28;20029;-77
2022/04/03 14:02:22;;;;;;;8.38;4.15;;;;;;;;;;5025887;28;20045;-75
2022/04/03 14:04:48;;;;;;;3.50;1.20;;;;;;;;;;5007954;28;20399;-75
2022/04/03 14:07:14;;;;;;;5.05;2.45;;;;;;;;;;5021469;28;20026;-77
2022/04/03 14:09:40;;;;;;;6.25;2.00;;;;;;;;;;5024880;28;20022;-76
2022/04/03 14:12:07;;;;;;;4.18;1.65;;;;;;;;;;5008366;28;20036;-76
2022/04/03 14:14:33;;;;;;;2.65;1.42;;;;;;;;;;5024187;28;20446;-77
2022/04/03 14:16:59;;;;;;;3.22;1.40;;;;;;;;;;5023427;28;20040;-77
2022/04/03 14:19:25;;;;;;;3.55;1.40;;;;;;;;;;5024911;28;20080;-77
2022/04/03 14:21:51;;;;;;;3.17;1.80;;;;;;;;;;5022861;28;20116;-77
2022/04/03 14:24:17;;;;;;;4.60;1.77;;;;;;;;;;5026209;28;20116;-76
2022/04/03 14:26:45;;;;;;;5.15;1.88;;;;;;;;;;5024142;28;20064;-77
2022/04/03 14:29:11;;;;;;;2.90;1.67;;;;;;;;;;5026117;28;20044;-77
2022/04/03 14:31:37;;;;;;;5.95;1.67;;;;;;;;;;5021363;28;20135;-76
2022/04/03 14:34:03;;;;;;;3.88;1.52;;;;;;;;;;5029708;28;20022;-77
2022/04/03 14:36:29;;;;;;;3.10;1.65;;;;;;;;;;5032672;28;20026;-77